AirNav   Airventure
 
 292 users online  

MO48 Red Oak Airport
Owensville, Missouri, USA


FAA INFORMATION EFFECTIVE 20 JULY 2017

Location

FAA Identifier: MO48
Lat/Long: 38-20-14.3100N / 091-25-16.9900W
38-20.238500N / 091-25.283167W
38.3373083 / -91.4213861
(estimated)
Elevation: 745 ft. / 227 m (estimated)
Time zone: UTC -5 (UTC -6 during Standard Time)
Zip code: 63091

Airport Operations

Airport use: Private use. Permission required prior to landing
Activation date: 08/2015
Control tower: no
ARTCC: KANSAS CITY CENTER
FSS: SAINT LOUIS FLIGHT SERVICE STATION
Attendance: UNATNDD
Segmented circle: no

Airport Communications

WX AWOS-3 at UUV (14 nm SE): 119.375 (573-860-2596)

Nearby radio navigation aids

VOR radial/distance  VOR name  Freq  Var
VIHr045/17.4VICHY VOR/DME117.7006E
FTZr220/30.1FORISTELL VORTAC110.8005E

 
NDB name  Hdg/Dist  Freq  Var  ID
SULLIVAN295/13.635602EUUV ..- ..- ...-

Airport Services

Runway Information

Runway 12/30

Dimensions: 1661 x 40 ft. / 506 x 12 m
Surface: turf/gravel
RUNWAY 12  RUNWAY 30
Latitude: 38-20.304333N38-20.172667N
Longitude: 091-25.435500W091-25.130833W
Elevation: 747.0 ft.740.0 ft.
Traffic pattern: leftleft

Airport Ownership and Management from official FAA records

Ownership: Privately-owned
Owner: PHIL HORSTMANN
PO BOX 1831
WILSON, WY 83014
Phone 314-713-4866
Manager: PHIL HORSTMANN
PO BOX 1831
WILSON, WY 83014
Phone 314-713-4866

Instrument Procedures

There are no published instrument procedures at MO48.

Some nearby airports with instrument procedures:

KUUV - Sullivan Regional Airport (14 nm SE)
KUBX - Cuba Municipal Airport (16 nm S)
KVIH - Rolla National Airport (21 nm SW)
KFYG - Washington Regional Airport (25 nm NE)
KJEF - Jefferson City Memorial Airport (38 nm NW)
 
Loc | Ops | Rwys | IFR | FBO | Links
Com | Nav | Svcs | Stats | Notes


 
Aerial photo
No photo
 
Airport distance calculator
Flying to Red Oak Airport? Find the distance to fly.

From to MO48

Sunrise and sunset
Times for 26-Jul-2017
 Local
(UTC-5)
 Zulu
(UTC)
Morning civil twilight05:3410:34
Sunrise06:0411:04
Sunset20:2101:21
Evening civil twilight20:5001:50

Current date and time
Zulu (UTC)  26-Jul-2017 07:48:17
Local (UTC-5)  26-Jul-2017 02:48:17
 
METAR
KVIH 
20nm SW 
260653Z AUTO 13003KT 9SM CLR 24/22 A3008 RMK AO2 SLP171 T02390222
KFYG 
25nm NE 
260715Z AUTO 12003KT 10SM 25/23 A3004 RMK AO2
KJEF 
38nm NW 
260653Z AUTO 00000KT 10SM FEW080 24/22 A3004 RMK AO2 SLP157 T02440222
TAF
KSUS 
41nm NE 
260520Z 2606/2706 12004KT P6SM SCT200 FM261700 19004KT P6SM FEW250 FM261900 22005KT P6SM BKN050 FM270100 18004KT P6SM SCT120
KCOU 
47nm NW 
260520Z 2606/2706 11005KT P6SM SCT250 FM261300 17004KT P6SM SCT250 FM261500 24005KT P6SM SCT250 FM261900 24007KT P6SM BKN050 FM270200 18004KT P6SM BKN200
NOTAMs
Click for the latest NOTAMs
NOTAMs are issued by the DoD/FAA and will open in a separate window not controlled by AirNav.

 

 
 

Would you like to see your business listed on this page?

 If your business provides an interesting product or service to pilots, flight crews, aircraft, or users of the Red Oak Airport, you should consider listing it here.  To start the listing process, click on the button below
 
Add a business
 

Other Pages about Red Oak Airport

Update a link
 
Copyright © AirNav, LLC. All rights reserved. Privacy Policy  Contact